Terminal Aerodrome Forecast
Issued by NWS La Crosse, WI

Home | Current Version | Previous Version | Text Only | Print | Product List | Glossary On
Versions: 1 2 3 4 5 6 7 8 9 10 11 12 13 14 15 16 17 18 19 20 21 22 23 24 25 26 27 28 29 30 31 32 33 34 35 36 37 38 39 40 41 42 43 44 45 46 47 48 49 50
000
FTUS43 KARX 062341
TAFRST
TAF
KRST 062341Z 0700/0724 15017G27KT P6SM VCTS BKN040CB
     FM070200 16013KT P6SM BKN080
     FM070900 16013KT P6SM BKN080 WS020/19050KT
     FM071500 19020G30KT P6SM -TSRA BKN060CB
     FM071800 19020G35KT 3SM TSRA BR BKN015CB=

USA.gov is the U.S. government's official web portal to all federal, state and local government web resources and services.